Time;durP1;ratioP1;P1;durP2;ratioP2;P2;SDS_P1;SDS_P2;PMS_P1;PMS_P2;Temp;Humidity;BMP_temperature;BMP_pressure;BME280_temperature;BME280_humidity;BME280_pressure;Samples;Min_cycle;Max_cycle;Signal;HPM_P1;HPM_P2
2022/12/19 21:08:08;;;;;;;15.78;9.58;;;;;;;-5.21;81.02;101543.73;1756480;80;22062;-40
2022/12/19 21:10:35;;;;;;;19.90;10.43;;;;;;;-5.03;80.16;101550.05;1742987;81;20983;-38
2022/12/19 21:13:02;;;;;;;17.05;10.48;;;;;;;-5.02;79.82;101543.75;1761123;81;21238;-38
2022/12/19 21:15:30;;;;;;;18.32;10.85;;;;;;;-4.92;79.47;101542.02;1752859;81;21529;-37
2022/12/19 21:17:57;;;;;;;16.50;10.08;;;;;;;-4.86;78.99;101547.31;1761163;81;20933;-37
2022/12/19 21:20:24;;;;;;;20.95;11.00;;;;;;;-4.80;78.34;101540.91;1761153;81;20941;-37
2022/12/19 21:22:52;;;;;;;17.00;10.50;;;;;;;-4.80;77.64;101535.11;1761123;81;21044;-37
2022/12/19 21:25:20;;;;;;;19.23;10.53;;;;;;;-4.78;77.30;101530.41;1761222;81;21251;-37
2022/12/19 21:27:46;;;;;;;18.62;10.95;;;;;;;-4.74;76.84;101532.16;1761499;81;20914;-37
2022/12/19 21:30:13;;;;;;;16.35;10.25;;;;;;;-4.78;76.55;101522.47;1761301;81;21015;-37
2022/12/19 21:32:41;;;;;;;17.48;10.48;;;;;;;-4.76;76.42;101522.27;1761218;81;21360;-37
2022/12/19 21:35:09;;;;;;;15.50;9.90;;;;;;;-4.77;76.26;101524.61;1761299;81;20999;-37
2022/12/19 21:37:35;;;;;;;19.55;10.60;;;;;;;-4.77;76.26;101514.02;1753010;81;21158;-37
2022/12/19 21:40:04;;;;;;;17.10;10.85;;;;;;;-4.70;75.99;101506.90;1753123;81;20933;-38
2022/12/19 21:42:31;;;;;;;17.35;9.90;;;;;;;-4.65;75.77;101509.74;1752874;81;22072;-38
2022/12/19 21:44:58;;;;;;;18.30;10.20;;;;;;;-4.61;75.25;101503.01;1753120;81;20968;-38
2022/12/19 21:47:24;;;;;;;17.48;10.55;;;;;;;-4.63;74.97;101503.20;1752890;81;20941;-37
2022/12/19 21:49:51;;;;;;;18.15;10.40;;;;;;;-4.64;74.98;101499.44;1752993;81;21146;-38
2022/12/19 21:52:18;;;;;;;16.20;9.73;;;;;;;-4.63;74.71;101503.20;1752700;81;21036;-38
2022/12/19 21:54:44;;;;;;;17.65;10.38;;;;;;;-4.64;74.75;101498.93;1753077;81;21538;-38
2022/12/19 21:57:11;;;;;;;16.90;10.50;;;;;;;-4.60;74.58;101504.64;1752573;81;21569;-37
2022/12/19 21:59:38;;;;;;;16.35;10.18;;;;;;;-4.58;74.47;101502.08;1752743;81;21056;-38
2022/12/19 22:02:05;;;;;;;18.32;10.63;;;;;;;-4.55;74.18;101495.03;1752852;81;21151;-38
2022/12/19 22:04:31;;;;;;;14.50;10.03;;;;;;;-4.58;73.97;101484.87;1752544;81;21008;-38
2022/12/19 22:06:59;;;;;;;21.95;10.65;;;;;;;-4.58;73.89;101488.03;1757095;81;20987;-38
2022/12/19 22:09:26;;;;;;;16.97;10.23;;;;;;;-4.59;73.71;101484.56;1763712;81;21075;-38
2022/12/19 22:11:53;;;;;;;18.37;11.30;;;;;;;-4.64;73.76;101475.62;1763832;80;21040;-38
2022/12/19 22:14:20;;;;;;;23.70;12.43;;;;;;;-4.62;73.75;101471.77;1763864;81;21228;-38
2022/12/19 22:16:46;;;;;;;20.05;11.83;;;;;;;-4.55;73.64;101466.45;1763957;80;21059;-38
2022/12/19 22:19:15;;;;;;;18.90;11.03;;;;;;;-4.54;73.55;101452.17;1764032;81;21490;-38
2022/12/19 22:21:42;;;;;;;21.93;12.03;;;;;;;-4.53;73.00;101451.98;1763835;81;20992;-37
2022/12/19 22:24:11;;;;;;;21.75;11.95;;;;;;;-4.60;72.91;101463.63;1764266;81;21024;-38
2022/12/19 22:26:38;;;;;;;26.05;12.78;;;;;;;-4.66;73.03;101452.03;1763917;80;21263;-38
2022/12/19 22:29:07;;;;;;;23.12;12.33;;;;;;;-4.68;72.92;101451.41;1764286;81;20984;-38
2022/12/19 22:31:35;;;;;;;22.05;10.88;;;;;;;-4.70;72.96;101447.36;1764208;80;21036;-38
2022/12/19 22:34:05;;;;;;;27.85;12.60;;;;;;;-4.72;72.82;101458.15;1764002;81;20968;-38
2022/12/19 22:36:34;;;;;;;26.37;13.15;;;;;;;-4.71;72.86;101446.55;1763757;80;20976;-38
2022/12/19 22:39:02;;;;;;;22.25;11.88;;;;;;;-4.71;72.88;101464.25;1763764;81;21064;-38
2022/12/19 22:41:29;;;;;;;27.10;13.58;;;;;;;-4.67;72.49;101470.75;1764040;81;21001;-38
2022/12/19 22:43:56;;;;;;;24.82;12.28;;;;;;;-4.67;72.44;101457.02;1763769;81;20925;-38
2022/12/19 22:46:26;;;;;;;31.33;13.20;;;;;;;-4.63;72.35;101456.08;1763729;80;20981;-38
2022/12/19 22:48:56;;;;;;;24.85;12.68;;;;;;;-4.56;72.18;101451.59;1763897;80;20994;-38
2022/12/19 22:51:22;;;;;;;24.35;12.40;;;;;;;-4.56;72.07;101450.27;1763922;81;21126;-38
2022/12/19 22:53:49;;;;;;;23.35;12.30;;;;;;;-4.52;71.78;101441.70;1763870;80;20948;-38
2022/12/19 22:56:19;;;;;;;31.33;13.53;;;;;;;-4.49;71.48;101445.75;1763864;80;21584;-38
2022/12/19 22:58:48;;;;;;;30.20;12.80;;;;;;;-4.52;71.41;101446.17;1763853;81;21007;-38
2022/12/19 23:01:35;;;;;;;26.30;13.28;;;;;;;-4.51;71.01;101441.19;1763878;81;21190;-38
2022/12/19 23:04:03;;;;;;;31.70;12.80;;;;;;;-4.53;70.94;101438.74;1763547;80;23158;-38
2022/12/19 23:06:32;;;;;;;22.62;12.10;;;;;;;-4.56;70.81;101434.39;1763284;80;21443;-38
2022/12/19 23:08:58;;;;;;;26.80;13.90;;;;;;;-4.58;70.74;101432.45;1761072;81;21519;-38
2022/12/19 23:11:29;;;;;;;27.98;13.00;;;;;;;-4.61;70.56;101424.43;1761024;81;21188;-38
2022/12/19 23:13:57;;;;;;;33.05;13.40;;;;;;;-4.61;70.53;101419.64;1761294;80;21066;-38
2022/12/19 23:16:24;;;;;;;24.40;12.78;;;;;;;-4.60;70.52;101416.77;1755054;80;21554;-38
2022/12/19 23:18:51;;;;;;;33.20;12.93;;;;;;;-4.56;70.22;101416.68;1761209;81;21537;-38
2022/12/19 23:21:21;;;;;;;28.55;12.65;;;;;;;-4.56;69.98;101412.70;1761168;80;20953;-38
2022/12/19 23:23:49;;;;;;;27.52;12.65;;;;;;;-4.60;69.87;101409.38;1761221;80;21052;-38
2022/12/19 23:26:24;;;;;;;24.63;12.50;;;;;;;-4.64;69.81;101406.81;1761394;80;21040;-38
2022/12/19 23:28:57;;;;;;;32.10;11.57;;;;;;;-4.64;69.89;101408.14;1760010;80;21180;-38
2022/12/19 23:31:27;;;;;;;21.95;11.80;;;;;;;-4.64;69.58;101412.11;1760962;80;21021;-38
2022/12/19 23:33:54;;;;;;;25.85;12.20;;;;;;;-4.61;69.50;101409.87;1761443;80;21068;-38
2022/12/19 23:36:21;;;;;;;26.90;10.93;;;;;;;-4.68;69.47;101397.17;1760955;81;20948;-38
2022/12/19 23:38:48;;;;;;;26.45;12.43;;;;;;;-4.66;69.55;101391.67;1760923;81;21016;-38
2022/12/19 23:41:14;;;;;;;22.85;12.20;;;;;;;-4.64;69.31;101386.97;1747912;81;21597;-38
2022/12/19 23:43:41;;;;;;;28.85;11.75;;;;;;;-4.61;69.22;101387.89;1761015;80;21000;-38
2022/12/19 23:46:12;;;;;;;30.95;12.03;;;;;;;-4.57;68.98;101379.83;1761087;81;20992;-38
2022/12/19 23:48:40;;;;;;;23.47;12.13;;;;;;;-4.61;68.92;101370.69;1760921;81;21007;-38
2022/12/19 23:51:10;;;;;;;23.95;11.95;;;;;;;-4.63;68.82;101362.95;1761014;81;21083;-38
2022/12/19 23:53:36;;;;;;;28.42;13.20;;;;;;;-4.58;68.83;101363.64;1748227;81;21082;-38
2022/12/19 23:56:06;;;;;;;25.50;12.40;;;;;;;-4.51;68.38;101364.43;1760994;81;21195;-38
2022/12/19 23:58:33;;;;;;;32.10;13.20;;;;;;;-4.54;68.04;101362.19;1761099;80;21052;-38
